sensor_id;sensor_type;location;lat;lon;timestamp;P1;durP1;ratioP1;P2;durP2;ratioP2
35239;SDS011;21376;50.954;4.716;2024-01-16T00:04:24;21.33;;;5.85;;
35239;SDS011;21376;50.954;4.716;2024-01-16T00:06:51;22.73;;;6.85;;
35239;SDS011;21376;50.954;4.716;2024-01-16T00:09:21;16.23;;;5.45;;
35239;SDS011;21376;50.954;4.716;2024-01-16T00:11:52;16.20;;;6.05;;
35239;SDS011;21376;50.954;4.716;2024-01-16T00:14:21;19.08;;;5.70;;
35239;SDS011;21376;50.954;4.716;2024-01-16T00:19:19;20.27;;;6.32;;
35239;SDS011;21376;50.954;4.716;2024-01-16T00:21:45;20.90;;;6.35;;
35239;SDS011;21376;50.954;4.716;2024-01-16T00:24:13;16.23;;;5.93;;
35239;SDS011;21376;50.954;4.716;2024-01-16T00:29:08;14.98;;;6.55;;
35239;SDS011;21376;50.954;4.716;2024-01-16T00:34:09;14.18;;;5.18;;
35239;SDS011;21376;50.954;4.716;2024-01-16T00:36:37;17.95;;;6.15;;
35239;SDS011;21376;50.954;4.716;2024-01-16T00:39:02;20.08;;;5.60;;
35239;SDS011;21376;50.954;4.716;2024-01-16T00:49:36;14.00;;;5.63;;
35239;SDS011;21376;50.954;4.716;2024-01-16T00:52:03;16.17;;;5.93;;
35239;SDS011;21376;50.954;4.716;2024-01-16T00:54:35;16.30;;;5.30;;
35239;SDS011;21376;50.954;4.716;2024-01-16T00:59:33;13.25;;;5.72;;
35239;SDS011;21376;50.954;4.716;2024-01-16T01:04:32;14.43;;;6.43;;
35239;SDS011;21376;50.954;4.716;2024-01-16T01:09:53;16.48;;;5.07;;
35239;SDS011;21376;50.954;4.716;2024-01-16T01:12:24;17.33;;;5.93;;
35239;SDS011;21376;50.954;4.716;2024-01-16T01:17:22;18.42;;;5.43;;
35239;SDS011;21376;50.954;4.716;2024-01-16T01:19:51;13.05;;;5.05;;
35239;SDS011;21376;50.954;4.716;2024-01-16T01:22:19;23.48;;;7.20;;
35239;SDS011;21376;50.954;4.716;2024-01-16T01:24:48;16.95;;;5.90;;
35239;SDS011;21376;50.954;4.716;2024-01-16T01:27:17;18.70;;;5.82;;
35239;SDS011;21376;50.954;4.716;2024-01-16T01:29:43;15.93;;;5.45;;
35239;SDS011;21376;50.954;4.716;2024-01-16T01:32:10;16.08;;;5.93;;
35239;SDS011;21376;50.954;4.716;2024-01-16T01:34:45;15.50;;;6.18;;
35239;SDS011;21376;50.954;4.716;2024-01-16T01:39:40;17.80;;;5.88;;
35239;SDS011;21376;50.954;4.716;2024-01-16T01:42:16;17.13;;;6.22;;
35239;SDS011;21376;50.954;4.716;2024-01-16T01:44:42;20.17;;;5.63;;
35239;SDS011;21376;50.954;4.716;2024-01-16T01:49:40;17.90;;;5.60;;
35239;SDS011;21376;50.954;4.716;2024-01-16T01:52:09;14.50;;;6.50;;
35239;SDS011;21376;50.954;4.716;2024-01-16T01:54:38;16.95;;;5.40;;
35239;SDS011;21376;50.954;4.716;2024-01-16T01:57:09;19.60;;;5.80;;
35239;SDS011;21376;50.954;4.716;2024-01-16T01:59:41;17.25;;;5.85;;
35239;SDS011;21376;50.954;4.716;2024-01-16T02:04:40;15.88;;;5.43;;
35239;SDS011;21376;50.954;4.716;2024-01-16T02:09:39;15.25;;;5.53;;
35239;SDS011;21376;50.954;4.716;2024-01-16T02:12:11;15.73;;;5.38;;
35239;SDS011;21376;50.954;4.716;2024-01-16T02:14:38;19.88;;;5.82;;
35239;SDS011;21376;50.954;4.716;2024-01-16T02:22:32;13.63;;;6.18;;
35239;SDS011;21376;50.954;4.716;2024-01-16T02:33:47;13.25;;;5.60;;
35239;SDS011;21376;50.954;4.716;2024-01-16T02:36:13;16.63;;;5.93;;
35239;SDS011;21376;50.954;4.716;2024-01-16T02:38:39;20.58;;;6.40;;
35239;SDS011;21376;50.954;4.716;2024-01-16T02:41:08;16.17;;;5.53;;
35239;SDS011;21376;50.954;4.716;2024-01-16T02:43:34;17.55;;;6.35;;
35239;SDS011;21376;50.954;4.716;2024-01-16T02:46:03;17.88;;;5.72;;
35239;SDS011;21376;50.954;4.716;2024-01-16T02:48:32;14.90;;;6.55;;
35239;SDS011;21376;50.954;4.716;2024-01-16T02:51:01;18.10;;;5.68;;
35239;SDS011;21376;50.954;4.716;2024-01-16T02:53:34;20.23;;;6.57;;
35239;SDS011;21376;50.954;4.716;2024-01-16T02:56:03;33.05;;;6.32;;
35239;SDS011;21376;50.954;4.716;2024-01-16T03:01:17;19.40;;;6.20;;
35239;SDS011;21376;50.954;4.716;2024-01-16T03:13:24;12.45;;;5.82;;
35239;SDS011;21376;50.954;4.716;2024-01-16T03:18:22;15.88;;;6.15;;
35239;SDS011;21376;50.954;4.716;2024-01-16T03:23:24;20.05;;;6.22;;
35239;SDS011;21376;50.954;4.716;2024-01-16T03:25:53;14.93;;;6.68;;
35239;SDS011;21376;50.954;4.716;2024-01-16T03:28:31;22.88;;;6.28;;
35239;SDS011;21376;50.954;4.716;2024-01-16T03:33:58;18.33;;;5.78;;
35239;SDS011;21376;50.954;4.716;2024-01-16T03:38:53;13.13;;;5.00;;
35239;SDS011;21376;50.954;4.716;2024-01-16T03:41:25;12.73;;;5.10;;
35239;SDS011;21376;50.954;4.716;2024-01-16T03:43:51;20.02;;;6.25;;
35239;SDS011;21376;50.954;4.716;2024-01-16T03:46:20;17.63;;;5.90;;
35239;SDS011;21376;50.954;4.716;2024-01-16T03:48:47;18.23;;;5.63;;
35239;SDS011;21376;50.954;4.716;2024-01-16T03:51:14;18.23;;;5.80;;
35239;SDS011;21376;50.954;4.716;2024-01-16T03:53:43;16.77;;;5.78;;
35239;SDS011;21376;50.954;4.716;2024-01-16T03:56:12;13.98;;;5.13;;
35239;SDS011;21376;50.954;4.716;2024-01-16T03:58:40;14.02;;;5.60;;
35239;SDS011;21376;50.954;4.716;2024-01-16T04:01:07;16.35;;;4.80;;
35239;SDS011;21376;50.954;4.716;2024-01-16T04:03:34;13.20;;;4.95;;
35239;SDS011;21376;50.954;4.716;2024-01-16T04:08:42;16.20;;;5.00;;
35239;SDS011;21376;50.954;4.716;2024-01-16T04:11:14;15.52;;;5.43;;
35239;SDS011;21376;50.954;4.716;2024-01-16T04:13:41;12.93;;;6.38;;
35239;SDS011;21376;50.954;4.716;2024-01-16T04:16:08;15.02;;;5.03;;
35239;SDS011;21376;50.954;4.716;2024-01-16T04:18:38;19.23;;;5.43;;
35239;SDS011;21376;50.954;4.716;2024-01-16T04:21:08;11.55;;;4.85;;
35239;SDS011;21376;50.954;4.716;2024-01-16T04:31:30;16.55;;;5.68;;
35239;SDS011;21376;50.954;4.716;2024-01-16T04:33:59;15.75;;;4.72;;
35239;SDS011;21376;50.954;4.716;2024-01-16T04:36:28;22.00;;;5.72;;
35239;SDS011;21376;50.954;4.716;2024-01-16T04:39:04;12.52;;;5.38;;
35239;SDS011;21376;50.954;4.716;2024-01-16T04:41:36;13.05;;;5.30;;
35239;SDS011;21376;50.954;4.716;2024-01-16T04:44:04;12.40;;;5.28;;
35239;SDS011;21376;50.954;4.716;2024-01-16T04:49:01;23.88;;;5.20;;
35239;SDS011;21376;50.954;4.716;2024-01-16T04:51:28;15.70;;;5.72;;
35239;SDS011;21376;50.954;4.716;2024-01-16T04:53:57;22.13;;;5.50;;
35239;SDS011;21376;50.954;4.716;2024-01-16T04:58:55;14.40;;;5.75;;
35239;SDS011;21376;50.954;4.716;2024-01-16T05:01:27;12.32;;;5.18;;
35239;SDS011;21376;50.954;4.716;2024-01-16T05:04:11;12.70;;;4.93;;
35239;SDS011;21376;50.954;4.716;2024-01-16T05:06:49;13.80;;;4.95;;
35239;SDS011;21376;50.954;4.716;2024-01-16T05:09:19;16.63;;;5.05;;
35239;SDS011;21376;50.954;4.716;2024-01-16T05:11:58;22.40;;;5.53;;
35239;SDS011;21376;50.954;4.716;2024-01-16T05:14:25;13.52;;;5.47;;
35239;SDS011;21376;50.954;4.716;2024-01-16T05:16:53;15.20;;;5.95;;
35239;SDS011;21376;50.954;4.716;2024-01-16T05:19:20;15.60;;;5.47;;
35239;SDS011;21376;50.954;4.716;2024-01-16T05:24:21;15.10;;;6.10;;
35239;SDS011;21376;50.954;4.716;2024-01-16T05:26:50;14.02;;;5.65;;
35239;SDS011;21376;50.954;4.716;2024-01-16T05:29:18;14.60;;;6.20;;
35239;SDS011;21376;50.954;4.716;2024-01-16T05:31:45;18.63;;;5.63;;
35239;SDS011;21376;50.954;4.716;2024-01-16T05:34:11;18.45;;;6.13;;
35239;SDS011;21376;50.954;4.716;2024-01-16T05:36:37;17.92;;;6.43;;
35239;SDS011;21376;50.954;4.716;2024-01-16T05:39:05;18.42;;;7.07;;
35239;SDS011;21376;50.954;4.716;2024-01-16T05:41:34;17.60;;;7.30;;
35239;SDS011;21376;50.954;4.716;2024-01-16T05:46:32;20.42;;;7.03;;
35239;SDS011;21376;50.954;4.716;2024-01-16T05:49:01;18.10;;;7.15;;
35239;SDS011;21376;50.954;4.716;2024-01-16T05:51:30;16.92;;;7.15;;
35239;SDS011;21376;50.954;4.716;2024-01-16T05:56:28;23.50;;;8.23;;
35239;SDS011;21376;50.954;4.716;2024-01-16T05:58:56;22.02;;;7.65;;
35239;SDS011;21376;50.954;4.716;2024-01-16T06:01:22;21.75;;;6.93;;
35239;SDS011;21376;50.954;4.716;2024-01-16T06:03:55;15.65;;;8.48;;
35239;SDS011;21376;50.954;4.716;2024-01-16T06:15:05;19.15;;;8.38;;
35239;SDS011;21376;50.954;4.716;2024-01-16T06:17:34;16.13;;;6.95;;
35239;SDS011;21376;50.954;4.716;2024-01-16T06:25:13;16.10;;;7.35;;
35239;SDS011;21376;50.954;4.716;2024-01-16T06:27:40;19.00;;;7.35;;
35239;SDS011;21376;50.954;4.716;2024-01-16T06:30:09;22.13;;;7.93;;
35239;SDS011;21376;50.954;4.716;2024-01-16T06:32:35;19.45;;;8.65;;
35239;SDS011;21376;50.954;4.716;2024-01-16T06:35:17;19.40;;;8.80;;
35239;SDS011;21376;50.954;4.716;2024-01-16T06:40:12;17.92;;;7.70;;
35239;SDS011;21376;50.954;4.716;2024-01-16T06:42:38;19.00;;;6.80;;
35239;SDS011;21376;50.954;4.716;2024-01-16T06:45:05;21.05;;;7.93;;
35239;SDS011;21376;50.954;4.716;2024-01-16T06:47:45;18.00;;;7.43;;
35239;SDS011;21376;50.954;4.716;2024-01-16T06:52:43;22.60;;;8.38;;
35239;SDS011;21376;50.954;4.716;2024-01-16T06:55:08;23.83;;;8.38;;
35239;SDS011;21376;50.954;4.716;2024-01-16T06:57:49;16.80;;;7.75;;
35239;SDS011;21376;50.954;4.716;2024-01-16T07:00:21;18.35;;;7.75;;
35239;SDS011;21376;50.954;4.716;2024-01-16T07:07:54;21.80;;;7.55;;
35239;SDS011;21376;50.954;4.716;2024-01-16T07:13:04;22.75;;;8.38;;
35239;SDS011;21376;50.954;4.716;2024-01-16T07:15:35;25.33;;;8.05;;
35239;SDS011;21376;50.954;4.716;2024-01-16T07:20:33;15.95;;;7.85;;
35239;SDS011;21376;50.954;4.716;2024-01-16T07:23:13;20.27;;;8.00;;
35239;SDS011;21376;50.954;4.716;2024-01-16T07:25:44;27.08;;;8.25;;
35239;SDS011;21376;50.954;4.716;2024-01-16T07:35:40;18.60;;;7.82;;
35239;SDS011;21376;50.954;4.716;2024-01-16T07:38:19;18.70;;;7.78;;
35239;SDS011;21376;50.954;4.716;2024-01-16T07:43:43;17.05;;;7.85;;
35239;SDS011;21376;50.954;4.716;2024-01-16T07:46:09;20.42;;;7.85;;
35239;SDS011;21376;50.954;4.716;2024-01-16T07:53:36;17.27;;;7.00;;
35239;SDS011;21376;50.954;4.716;2024-01-16T07:56:03;20.02;;;7.53;;
35239;SDS011;21376;50.954;4.716;2024-01-16T08:01:37;14.95;;;7.13;;
35239;SDS011;21376;50.954;4.716;2024-01-16T08:30:18;21.48;;;9.90;;
35239;SDS011;21376;50.954;4.716;2024-01-16T08:42:07;19.48;;;7.65;;
35239;SDS011;21376;50.954;4.716;2024-01-16T08:44:39;21.08;;;8.23;;
35239;SDS011;21376;50.954;4.716;2024-01-16T08:47:05;16.80;;;7.78;;
35239;SDS011;21376;50.954;4.716;2024-01-16T08:49:32;27.98;;;8.93;;
35239;SDS011;21376;50.954;4.716;2024-01-16T08:52:01;17.13;;;7.78;;
35239;SDS011;21376;50.954;4.716;2024-01-16T08:54:32;16.98;;;7.20;;
35239;SDS011;21376;50.954;4.716;2024-01-16T08:59:28;15.10;;;7.55;;
35239;SDS011;21376;50.954;4.716;2024-01-16T09:01:54;17.30;;;7.97;;
35239;SDS011;21376;50.954;4.716;2024-01-16T09:04:30;15.52;;;7.18;;
35239;SDS011;21376;50.954;4.716;2024-01-16T09:07:02;18.88;;;7.20;;
35239;SDS011;21376;50.954;4.716;2024-01-16T09:17:56;13.07;;;6.18;;
35239;SDS011;21376;50.954;4.716;2024-01-16T09:20:22;18.73;;;7.30;;
35239;SDS011;21376;50.954;4.716;2024-01-16T09:22:48;14.55;;;6.38;;
35239;SDS011;21376;50.954;4.716;2024-01-16T09:25:20;17.77;;;6.72;;
35239;SDS011;21376;50.954;4.716;2024-01-16T09:27:52;14.20;;;6.60;;
35239;SDS011;21376;50.954;4.716;2024-01-16T09:43:11;16.95;;;6.68;;
35239;SDS011;21376;50.954;4.716;2024-01-16T09:45:40;16.63;;;7.18;;
35239;SDS011;21376;50.954;4.716;2024-01-16T09:50:40;18.38;;;7.78;;
35239;SDS011;21376;50.954;4.716;2024-01-16T09:53:09;18.85;;;7.00;;
35239;SDS011;21376;50.954;4.716;2024-01-16T10:01:50;20.00;;;7.43;;
35239;SDS011;21376;50.954;4.716;2024-01-16T10:04:21;15.32;;;6.85;;
35239;SDS011;21376;50.954;4.716;2024-01-16T10:06:53;16.02;;;7.05;;
35239;SDS011;21376;50.954;4.716;2024-01-16T10:11:51;17.15;;;7.60;;
35239;SDS011;21376;50.954;4.716;2024-01-16T10:20:12;12.93;;;5.90;;
35239;SDS011;21376;50.954;4.716;2024-01-16T10:31:14;12.40;;;4.93;;
35239;SDS011;21376;50.954;4.716;2024-01-16T10:33:43;13.73;;;5.13;;
35239;SDS011;21376;50.954;4.716;2024-01-16T10:36:13;22.10;;;9.38;;
35239;SDS011;21376;50.954;4.716;2024-01-16T11:08:08;9.52;;;3.75;;
35239;SDS011;21376;50.954;4.716;2024-01-16T11:10:40;10.50;;;3.90;;
35239;SDS011;21376;50.954;4.716;2024-01-16T11:13:09;8.13;;;3.85;;
35239;SDS011;21376;50.954;4.716;2024-01-16T11:15:39;10.82;;;3.67;;
35239;SDS011;21376;50.954;4.716;2024-01-16T11:20:40;6.72;;;3.72;;
35239;SDS011;21376;50.954;4.716;2024-01-16T11:31:57;9.43;;;3.75;;
35239;SDS011;21376;50.954;4.716;2024-01-16T11:39:40;8.38;;;4.13;;
35239;SDS011;21376;50.954;4.716;2024-01-16T11:42:06;9.93;;;3.42;;
35239;SDS011;21376;50.954;4.716;2024-01-16T11:44:41;9.45;;;3.47;;
35239;SDS011;21376;50.954;4.716;2024-01-16T11:47:20;7.07;;;3.80;;
35239;SDS011;21376;50.954;4.716;2024-01-16T11:49:50;8.93;;;3.65;;
35239;SDS011;21376;50.954;4.716;2024-01-16T11:52:45;7.97;;;3.85;;
35239;SDS011;21376;50.954;4.716;2024-01-16T11:55:26;11.75;;;3.97;;
35239;SDS011;21376;50.954;4.716;2024-01-16T12:00:58;9.13;;;3.05;;
35239;SDS011;21376;50.954;4.716;2024-01-16T12:21:51;9.45;;;4.28;;
35239;SDS011;21376;50.954;4.716;2024-01-16T12:24:23;7.10;;;4.05;;
35239;SDS011;21376;50.954;4.716;2024-01-16T12:26:49;7.57;;;3.30;;
35239;SDS011;21376;50.954;4.716;2024-01-16T12:29:21;6.88;;;3.10;;
35239;SDS011;21376;50.954;4.716;2024-01-16T12:31:50;8.32;;;3.75;;
35239;SDS011;21376;50.954;4.716;2024-01-16T12:34:22;7.45;;;3.67;;
35239;SDS011;21376;50.954;4.716;2024-01-16T12:37:03;9.68;;;4.35;;
35239;SDS011;21376;50.954;4.716;2024-01-16T12:39:34;7.30;;;3.58;;
35239;SDS011;21376;50.954;4.716;2024-01-16T12:47:38;9.10;;;3.33;;
35239;SDS011;21376;50.954;4.716;2024-01-16T12:50:10;10.30;;;3.60;;
35239;SDS011;21376;50.954;4.716;2024-01-16T12:58:19;8.45;;;3.63;;
35239;SDS011;21376;50.954;4.716;2024-01-16T13:00:51;10.43;;;3.70;;
35239;SDS011;21376;50.954;4.716;2024-01-16T13:08:48;8.90;;;3.35;;
35239;SDS011;21376;50.954;4.716;2024-01-16T13:11:33;6.38;;;3.70;;
35239;SDS011;21376;50.954;4.716;2024-01-16T13:22:34;8.90;;;3.53;;
35239;SDS011;21376;50.954;4.716;2024-01-16T13:27:33;8.80;;;3.45;;
35239;SDS011;21376;50.954;4.716;2024-01-16T13:30:01;8.63;;;3.40;;
35239;SDS011;21376;50.954;4.716;2024-01-16T13:32:31;7.68;;;3.70;;
35239;SDS011;21376;50.954;4.716;2024-01-16T13:34:59;8.48;;;4.55;;
35239;SDS011;21376;50.954;4.716;2024-01-16T13:39:57;6.88;;;3.67;;
35239;SDS011;21376;50.954;4.716;2024-01-16T13:45:12;7.47;;;3.58;;
35239;SDS011;21376;50.954;4.716;2024-01-16T13:47:45;8.90;;;3.78;;
35239;SDS011;21376;50.954;4.716;2024-01-16T13:52:45;10.63;;;5.28;;
35239;SDS011;21376;50.954;4.716;2024-01-16T13:55:19;11.32;;;4.43;;
35239;SDS011;21376;50.954;4.716;2024-01-16T13:57:46;7.73;;;4.27;;
35239;SDS011;21376;50.954;4.716;2024-01-16T14:05:33;10.40;;;3.25;;
35239;SDS011;21376;50.954;4.716;2024-01-16T14:08:03;13.93;;;4.18;;
35239;SDS011;21376;50.954;4.716;2024-01-16T14:10:32;12.23;;;4.40;;
35239;SDS011;21376;50.954;4.716;2024-01-16T14:13:00;11.73;;;3.80;;
35239;SDS011;21376;50.954;4.716;2024-01-16T14:17:56;15.15;;;4.93;;
35239;SDS011;21376;50.954;4.716;2024-01-16T14:20:26;12.60;;;4.13;;
35239;SDS011;21376;50.954;4.716;2024-01-16T14:22:59;14.18;;;4.35;;
35239;SDS011;21376;50.954;4.716;2024-01-16T14:25:26;10.93;;;4.85;;
35239;SDS011;21376;50.954;4.716;2024-01-16T14:27:56;10.75;;;4.50;;
35239;SDS011;21376;50.954;4.716;2024-01-16T14:30:26;12.85;;;4.03;;
35239;SDS011;21376;50.954;4.716;2024-01-16T14:32:55;13.85;;;4.65;;
35239;SDS011;21376;50.954;4.716;2024-01-16T14:40:25;6.95;;;4.40;;
35239;SDS011;21376;50.954;4.716;2024-01-16T14:51:33;21.80;;;6.10;;
35239;SDS011;21376;50.954;4.716;2024-01-16T14:54:12;14.75;;;4.53;;
35239;SDS011;21376;50.954;4.716;2024-01-16T14:59:10;13.30;;;4.68;;
35239;SDS011;21376;50.954;4.716;2024-01-16T15:04:43;11.40;;;5.10;;
35239;SDS011;21376;50.954;4.716;2024-01-16T15:07:11;14.38;;;5.10;;
35239;SDS011;21376;50.954;4.716;2024-01-16T15:09:37;16.30;;;5.10;;
35239;SDS011;21376;50.954;4.716;2024-01-16T15:14:35;15.25;;;5.35;;
35239;SDS011;21376;50.954;4.716;2024-01-16T15:17:04;11.77;;;5.07;;
35239;SDS011;21376;50.954;4.716;2024-01-16T15:19:33;14.10;;;5.10;;
35239;SDS011;21376;50.954;4.716;2024-01-16T15:22:02;15.10;;;5.78;;
35239;SDS011;21376;50.954;4.716;2024-01-16T15:27:52;21.75;;;7.20;;
35239;SDS011;21376;50.954;4.716;2024-01-16T15:30:20;17.00;;;6.70;;
35239;SDS011;21376;50.954;4.716;2024-01-16T15:32:48;15.52;;;7.60;;
35239;SDS011;21376;50.954;4.716;2024-01-16T15:40:23;20.00;;;5.15;;
35239;SDS011;21376;50.954;4.716;2024-01-16T15:42:52;9.32;;;5.10;;
35239;SDS011;21376;50.954;4.716;2024-01-16T15:45:25;13.23;;;4.95;;
35239;SDS011;21376;50.954;4.716;2024-01-16T15:58:59;15.80;;;5.80;;
35239;SDS011;21376;50.954;4.716;2024-01-16T16:18:27;24.25;;;8.77;;
35239;SDS011;21376;50.954;4.716;2024-01-16T16:21:08;50.55;;;21.08;;
35239;SDS011;21376;50.954;4.716;2024-01-16T16:26:07;33.80;;;12.38;;
35239;SDS011;21376;50.954;4.716;2024-01-16T16:28:32;37.38;;;11.52;;
35239;SDS011;21376;50.954;4.716;2024-01-16T16:30:58;25.73;;;9.18;;
35239;SDS011;21376;50.954;4.716;2024-01-16T16:38:32;38.42;;;12.07;;
35239;SDS011;21376;50.954;4.716;2024-01-16T16:41:02;23.13;;;9.57;;
35239;SDS011;21376;50.954;4.716;2024-01-16T16:49:15;21.40;;;6.20;;
35239;SDS011;21376;50.954;4.716;2024-01-16T16:59:22;13.30;;;5.65;;
35239;SDS011;21376;50.954;4.716;2024-01-16T17:01:51;20.38;;;7.05;;
35239;SDS011;21376;50.954;4.716;2024-01-16T17:07:40;17.95;;;7.63;;
35239;SDS011;21376;50.954;4.716;2024-01-16T17:10:25;14.10;;;6.68;;
35239;SDS011;21376;50.954;4.716;2024-01-16T17:20:46;20.58;;;8.00;;
35239;SDS011;21376;50.954;4.716;2024-01-16T17:25:44;22.80;;;6.93;;
35239;SDS011;21376;50.954;4.716;2024-01-16T17:28:16;17.58;;;7.18;;
35239;SDS011;21376;50.954;4.716;2024-01-16T17:30:58;10.55;;;6.82;;
35239;SDS011;21376;50.954;4.716;2024-01-16T17:33:30;13.95;;;6.65;;
35239;SDS011;21376;50.954;4.716;2024-01-16T17:41:10;23.73;;;8.00;;
35239;SDS011;21376;50.954;4.716;2024-01-16T17:43:41;17.17;;;7.20;;
35239;SDS011;21376;50.954;4.716;2024-01-16T17:46:13;16.88;;;8.48;;
35239;SDS011;21376;50.954;4.716;2024-01-16T17:54:05;26.75;;;12.23;;
35239;SDS011;21376;50.954;4.716;2024-01-16T17:56:33;23.50;;;11.85;;
35239;SDS011;21376;50.954;4.716;2024-01-16T17:59:00;25.17;;;12.35;;
35239;SDS011;21376;50.954;4.716;2024-01-16T18:01:27;24.05;;;11.52;;
35239;SDS011;21376;50.954;4.716;2024-01-16T18:03:53;25.05;;;11.60;;
35239;SDS011;21376;50.954;4.716;2024-01-16T18:06:23;26.25;;;12.02;;
35239;SDS011;21376;50.954;4.716;2024-01-16T18:08:48;20.70;;;9.90;;
35239;SDS011;21376;50.954;4.716;2024-01-16T18:11:14;20.00;;;10.48;;
35239;SDS011;21376;50.954;4.716;2024-01-16T18:13:40;21.30;;;9.23;;
35239;SDS011;21376;50.954;4.716;2024-01-16T18:16:11;19.17;;;9.88;;
35239;SDS011;21376;50.954;4.716;2024-01-16T18:18:40;17.13;;;9.85;;
35239;SDS011;21376;50.954;4.716;2024-01-16T18:21:07;20.10;;;10.55;;
35239;SDS011;21376;50.954;4.716;2024-01-16T18:23:42;22.23;;;9.73;;
35239;SDS011;21376;50.954;4.716;2024-01-16T18:26:11;19.17;;;10.10;;
35239;SDS011;21376;50.954;4.716;2024-01-16T18:28:38;17.88;;;10.55;;
35239;SDS011;21376;50.954;4.716;2024-01-16T18:31:10;23.65;;;10.40;;
35239;SDS011;21376;50.954;4.716;2024-01-16T18:33:39;26.25;;;10.60;;
35239;SDS011;21376;50.954;4.716;2024-01-16T18:36:08;25.92;;;11.73;;
35239;SDS011;21376;50.954;4.716;2024-01-16T18:38:37;24.10;;;12.70;;
35239;SDS011;21376;50.954;4.716;2024-01-16T18:41:08;22.60;;;11.38;;
35239;SDS011;21376;50.954;4.716;2024-01-16T18:43:37;26.13;;;11.43;;
35239;SDS011;21376;50.954;4.716;2024-01-16T18:51:07;42.25;;;16.65;;
35239;SDS011;21376;50.954;4.716;2024-01-16T18:53:36;32.75;;;15.63;;
35239;SDS011;21376;50.954;4.716;2024-01-16T18:56:06;31.75;;;15.75;;
35239;SDS011;21376;50.954;4.716;2024-01-16T19:01:07;26.25;;;13.23;;
35239;SDS011;21376;50.954;4.716;2024-01-16T19:03:42;26.35;;;12.43;;
35239;SDS011;21376;50.954;4.716;2024-01-16T19:06:09;25.15;;;13.38;;
35239;SDS011;21376;50.954;4.716;2024-01-16T19:12:03;27.98;;;15.48;;
35239;SDS011;21376;50.954;4.716;2024-01-16T19:14:34;26.77;;;15.88;;
35239;SDS011;21376;50.954;4.716;2024-01-16T19:19:32;32.08;;;18.90;;
35239;SDS011;21376;50.954;4.716;2024-01-16T19:24:31;24.63;;;13.48;;
35239;SDS011;21376;50.954;4.716;2024-01-16T19:30:11;25.58;;;13.23;;
35239;SDS011;21376;50.954;4.716;2024-01-16T19:35:11;25.58;;;14.20;;
35239;SDS011;21376;50.954;4.716;2024-01-16T19:37:44;21.85;;;13.68;;
35239;SDS011;21376;50.954;4.716;2024-01-16T19:56:26;28.17;;;13.70;;
35239;SDS011;21376;50.954;4.716;2024-01-16T19:58:55;24.25;;;13.82;;
35239;SDS011;21376;50.954;4.716;2024-01-16T20:01:32;26.48;;;14.13;;
35239;SDS011;21376;50.954;4.716;2024-01-16T20:04:01;35.83;;;16.52;;
35239;SDS011;21376;50.954;4.716;2024-01-16T20:06:27;33.85;;;16.40;;
35239;SDS011;21376;50.954;4.716;2024-01-16T20:11:33;32.83;;;15.98;;
35239;SDS011;21376;50.954;4.716;2024-01-16T20:14:02;28.42;;;15.25;;
35239;SDS011;21376;50.954;4.716;2024-01-16T20:16:31;29.02;;;16.33;;
35239;SDS011;21376;50.954;4.716;2024-01-16T20:21:30;30.88;;;15.95;;
35239;SDS011;21376;50.954;4.716;2024-01-16T20:27:25;32.92;;;15.85;;
35239;SDS011;21376;50.954;4.716;2024-01-16T20:29:53;24.83;;;14.18;;
35239;SDS011;21376;50.954;4.716;2024-01-16T20:35:15;32.88;;;16.30;;
35239;SDS011;21376;50.954;4.716;2024-01-16T20:52:16;31.45;;;16.75;;
35239;SDS011;21376;50.954;4.716;2024-01-16T22:01:11;31.83;;;16.63;;
35239;SDS011;21376;50.954;4.716;2024-01-16T22:03:37;27.38;;;15.40;;
35239;SDS011;21376;50.954;4.716;2024-01-16T22:06:04;32.10;;;16.17;;
35239;SDS011;21376;50.954;4.716;2024-01-16T22:08:30;28.52;;;15.85;;
35239;SDS011;21376;50.954;4.716;2024-01-16T22:13:25;32.45;;;17.35;;
35239;SDS011;21376;50.954;4.716;2024-01-16T22:15:51;32.85;;;16.02;;
35239;SDS011;21376;50.954;4.716;2024-01-16T22:18:18;31.85;;;16.77;;
35239;SDS011;21376;50.954;4.716;2024-01-16T22:20:44;30.50;;;16.23;;
35239;SDS011;21376;50.954;4.716;2024-01-16T22:23:17;30.73;;;14.63;;
35239;SDS011;21376;50.954;4.716;2024-01-16T22:25:46;28.17;;;15.18;;
35239;SDS011;21376;50.954;4.716;2024-01-16T22:28:12;34.78;;;15.55;;
35239;SDS011;21376;50.954;4.716;2024-01-16T22:30:40;32.25;;;15.57;;
35239;SDS011;21376;50.954;4.716;2024-01-16T22:33:12;29.73;;;15.23;;
35239;SDS011;21376;50.954;4.716;2024-01-16T22:35:41;29.50;;;15.13;;
35239;SDS011;21376;50.954;4.716;2024-01-16T22:38:07;31.52;;;15.35;;
35239;SDS011;21376;50.954;4.716;2024-01-16T22:40:37;28.02;;;15.10;;
35239;SDS011;21376;50.954;4.716;2024-01-16T22:43:06;31.25;;;15.75;;
35239;SDS011;21376;50.954;4.716;2024-01-16T22:45:38;36.42;;;15.55;;
35239;SDS011;21376;50.954;4.716;2024-01-16T22:48:05;30.05;;;15.40;;
35239;SDS011;21376;50.954;4.716;2024-01-16T22:50:36;28.70;;;14.32;;
35239;SDS011;21376;50.954;4.716;2024-01-16T22:53:07;27.75;;;14.88;;
35239;SDS011;21376;50.954;4.716;2024-01-16T22:55:35;26.05;;;14.68;;
35239;SDS011;21376;50.954;4.716;2024-01-16T22:58:04;30.92;;;15.20;;
35239;SDS011;21376;50.954;4.716;2024-01-16T23:03:11;31.70;;;15.48;;
35239;SDS011;21376;50.954;4.716;2024-01-16T23:08:13;24.17;;;14.07;;
35239;SDS011;21376;50.954;4.716;2024-01-16T23:10:40;25.15;;;13.10;;
35239;SDS011;21376;50.954;4.716;2024-01-16T23:13:09;28.45;;;13.27;;
35239;SDS011;21376;50.954;4.716;2024-01-16T23:15:44;32.53;;;13.70;;
35239;SDS011;21376;50.954;4.716;2024-01-16T23:18:10;27.60;;;12.68;;
35239;SDS011;21376;50.954;4.716;2024-01-16T23:20:38;24.95;;;12.88;;
35239;SDS011;21376;50.954;4.716;2024-01-16T23:23:05;27.70;;;12.85;;
35239;SDS011;21376;50.954;4.716;2024-01-16T23:25:38;25.17;;;12.80;;
35239;SDS011;21376;50.954;4.716;2024-01-16T23:28:10;27.10;;;13.55;;
35239;SDS011;21376;50.954;4.716;2024-01-16T23:33:24;26.30;;;11.90;;
35239;SDS011;21376;50.954;4.716;2024-01-16T23:35:58;20.50;;;12.68;;
35239;SDS011;21376;50.954;4.716;2024-01-16T23:38:27;24.40;;;12.40;;
35239;SDS011;21376;50.954;4.716;2024-01-16T23:40:56;22.95;;;11.95;;
35239;SDS011;21376;50.954;4.716;2024-01-16T23:48:27;24.52;;;11.63;;
35239;SDS011;21376;50.954;4.716;2024-01-16T23:50:53;20.92;;;11.07;;
35239;SDS011;21376;50.954;4.716;2024-01-16T23:58:21;23.77;;;11.90;;
